sensor_id;sensor_type;location;lat;lon;timestamp;P1;durP1;ratioP1;P2;durP2;ratioP2
52072;SDS011;38074;51.232;6.826;2022-12-10T00:05:11;2.77;;;2.27;;
52072;SDS011;38074;51.232;6.826;2022-12-10T00:12:26;3.47;;;2.70;;
52072;SDS011;38074;51.232;6.826;2022-12-10T00:19:42;2.87;;;2.30;;
52072;SDS011;38074;51.232;6.826;2022-12-10T00:26:57;3.97;;;2.40;;
52072;SDS011;38074;51.232;6.826;2022-12-10T00:34:13;3.45;;;2.50;;
52072;SDS011;38074;51.232;6.826;2022-12-10T00:41:29;3.08;;;2.15;;
52072;SDS011;38074;51.232;6.826;2022-12-10T00:48:45;2.83;;;2.05;;
52072;SDS011;38074;51.232;6.826;2022-12-10T00:56:01;3.25;;;2.33;;
52072;SDS011;38074;51.232;6.826;2022-12-10T01:03:16;2.90;;;2.17;;
52072;SDS011;38074;51.232;6.826;2022-12-10T01:10:32;2.83;;;1.83;;
52072;SDS011;38074;51.232;6.826;2022-12-10T01:17:47;2.90;;;2.23;;
52072;SDS011;38074;51.232;6.826;2022-12-10T01:25:03;2.80;;;2.17;;
52072;SDS011;38074;51.232;6.826;2022-12-10T01:32:19;2.92;;;2.42;;
52072;SDS011;38074;51.232;6.826;2022-12-10T01:39:34;2.43;;;1.90;;
52072;SDS011;38074;51.232;6.826;2022-12-10T01:46:54;3.00;;;2.23;;
52072;SDS011;38074;51.232;6.826;2022-12-10T01:54:13;2.67;;;2.03;;
52072;SDS011;38074;51.232;6.826;2022-12-10T02:01:46;2.65;;;2.10;;
52072;SDS011;38074;51.232;6.826;2022-12-10T02:09:06;2.58;;;2.00;;
52072;SDS011;38074;51.232;6.826;2022-12-10T02:16:30;2.40;;;1.83;;
52072;SDS011;38074;51.232;6.826;2022-12-10T02:23:57;2.90;;;1.90;;
52072;SDS011;38074;51.232;6.826;2022-12-10T02:31:18;2.35;;;1.80;;
52072;SDS011;38074;51.232;6.826;2022-12-10T02:38:39;2.67;;;2.13;;
52072;SDS011;38074;51.232;6.826;2022-12-10T02:45:59;2.50;;;2.03;;
52072;SDS011;38074;51.232;6.826;2022-12-10T02:53:18;2.05;;;1.60;;
52072;SDS011;38074;51.232;6.826;2022-12-10T03:00:35;2.78;;;2.10;;
52072;SDS011;38074;51.232;6.826;2022-12-10T03:08:32;2.30;;;1.60;;
52072;SDS011;38074;51.232;6.826;2022-12-10T03:15:41;2.15;;;1.75;;
52072;SDS011;38074;51.232;6.826;2022-12-10T03:22:59;2.40;;;1.70;;
52072;SDS011;38074;51.232;6.826;2022-12-10T03:30:17;2.15;;;1.58;;
52072;SDS011;38074;51.232;6.826;2022-12-10T03:37:32;2.27;;;1.80;;
52072;SDS011;38074;51.232;6.826;2022-12-10T03:44:50;2.20;;;1.60;;
52072;SDS011;38074;51.232;6.826;2022-12-10T03:52:06;2.10;;;1.70;;
52072;SDS011;38074;51.232;6.826;2022-12-10T03:59:22;1.97;;;1.60;;
52072;SDS011;38074;51.232;6.826;2022-12-10T04:06:38;1.97;;;1.70;;
52072;SDS011;38074;51.232;6.826;2022-12-10T04:13:54;2.40;;;1.57;;
52072;SDS011;38074;51.232;6.826;2022-12-10T04:21:29;1.85;;;1.48;;
52072;SDS011;38074;51.232;6.826;2022-12-10T04:29:04;2.70;;;1.65;;
52072;SDS011;38074;51.232;6.826;2022-12-10T04:36:21;2.20;;;1.67;;
52072;SDS011;38074;51.232;6.826;2022-12-10T04:43:37;2.00;;;1.60;;
52072;SDS011;38074;51.232;6.826;2022-12-10T04:50:52;2.80;;;1.75;;
52072;SDS011;38074;51.232;6.826;2022-12-10T04:58:08;2.67;;;2.07;;
52072;SDS011;38074;51.232;6.826;2022-12-10T05:05:23;2.87;;;1.70;;
52072;SDS011;38074;51.232;6.826;2022-12-10T05:12:39;3.23;;;2.30;;
52072;SDS011;38074;51.232;6.826;2022-12-10T05:19:54;2.10;;;1.77;;
52072;SDS011;38074;51.232;6.826;2022-12-10T05:27:10;2.33;;;1.97;;
52072;SDS011;38074;51.232;6.826;2022-12-10T05:34:25;2.30;;;1.70;;
52072;SDS011;38074;51.232;6.826;2022-12-10T05:41:42;2.50;;;1.90;;
52072;SDS011;38074;51.232;6.826;2022-12-10T05:56:15;2.72;;;2.00;;
52072;SDS011;38074;51.232;6.826;2022-12-10T06:03:35;3.67;;;2.05;;
52072;SDS011;38074;51.232;6.826;2022-12-10T06:10:51;5.32;;;1.88;;
52072;SDS011;38074;51.232;6.826;2022-12-10T06:18:06;4.03;;;2.00;;
52072;SDS011;38074;51.232;6.826;2022-12-10T06:25:22;7.13;;;2.45;;
52072;SDS011;38074;51.232;6.826;2022-12-10T06:32:38;11.13;;;2.50;;
52072;SDS011;38074;51.232;6.826;2022-12-10T06:39:54;5.50;;;1.95;;
52072;SDS011;38074;51.232;6.826;2022-12-10T06:47:09;4.67;;;1.90;;
52072;SDS011;38074;51.232;6.826;2022-12-10T06:54:25;4.97;;;2.70;;
52072;SDS011;38074;51.232;6.826;2022-12-10T07:01:40;6.27;;;3.07;;
52072;SDS011;38074;51.232;6.826;2022-12-10T07:08:56;5.87;;;3.40;;
52072;SDS011;38074;51.232;6.826;2022-12-10T07:16:12;5.80;;;3.22;;
52072;SDS011;38074;51.232;6.826;2022-12-10T07:30:44;4.13;;;3.28;;
52072;SDS011;38074;51.232;6.826;2022-12-10T07:38:00;6.73;;;3.40;;
52072;SDS011;38074;51.232;6.826;2022-12-10T07:45:15;6.47;;;3.00;;
52072;SDS011;38074;51.232;6.826;2022-12-10T07:52:31;6.70;;;3.40;;
52072;SDS011;38074;51.232;6.826;2022-12-10T07:59:47;8.77;;;4.70;;
52072;SDS011;38074;51.232;6.826;2022-12-10T08:07:02;4.60;;;3.43;;
52072;SDS011;38074;51.232;6.826;2022-12-10T08:14:18;13.50;;;8.63;;
52072;SDS011;38074;51.232;6.826;2022-12-10T08:21:33;16.27;;;9.73;;
52072;SDS011;38074;51.232;6.826;2022-12-10T08:28:49;12.90;;;7.80;;
52072;SDS011;38074;51.232;6.826;2022-12-10T08:36:05;10.68;;;6.40;;
52072;SDS011;38074;51.232;6.826;2022-12-10T08:43:22;9.88;;;5.40;;
52072;SDS011;38074;51.232;6.826;2022-12-10T08:50:37;6.38;;;4.63;;
52072;SDS011;38074;51.232;6.826;2022-12-10T08:57:53;7.63;;;5.15;;
52072;SDS011;38074;51.232;6.826;2022-12-10T09:05:10;7.00;;;4.93;;
52072;SDS011;38074;51.232;6.826;2022-12-10T09:12:26;6.82;;;4.97;;
52072;SDS011;38074;51.232;6.826;2022-12-10T09:19:42;6.60;;;4.17;;
52072;SDS011;38074;51.232;6.826;2022-12-10T09:26:57;7.57;;;4.43;;
52072;SDS011;38074;51.232;6.826;2022-12-10T09:34:12;9.23;;;4.47;;
52072;SDS011;38074;51.232;6.826;2022-12-10T09:56:50;7.50;;;3.80;;
52072;SDS011;38074;51.232;6.826;2022-12-10T10:04:08;7.43;;;3.17;;
52072;SDS011;38074;51.232;6.826;2022-12-10T10:11:28;10.97;;;4.00;;
52072;SDS011;38074;51.232;6.826;2022-12-10T10:18:56;8.52;;;4.25;;
52072;SDS011;38074;51.232;6.826;2022-12-10T10:26:14;10.07;;;3.67;;
52072;SDS011;38074;51.232;6.826;2022-12-10T10:33:30;7.03;;;3.90;;
52072;SDS011;38074;51.232;6.826;2022-12-10T10:40:48;7.53;;;3.90;;
52072;SDS011;38074;51.232;6.826;2022-12-10T10:55:32;7.75;;;3.78;;
52072;SDS011;38074;51.232;6.826;2022-12-10T11:02:50;8.20;;;3.60;;
52072;SDS011;38074;51.232;6.826;2022-12-10T11:10:20;6.45;;;3.30;;
52072;SDS011;38074;51.232;6.826;2022-12-10T11:17:37;6.95;;;3.05;;
52072;SDS011;38074;51.232;6.826;2022-12-10T11:25:02;5.10;;;3.13;;
52072;SDS011;38074;51.232;6.826;2022-12-10T11:32:31;10.57;;;3.97;;
52072;SDS011;38074;51.232;6.826;2022-12-10T12:10:25;16.83;;;4.35;;
52072;SDS011;38074;51.232;6.826;2022-12-10T12:17:45;11.60;;;3.83;;
52072;SDS011;38074;51.232;6.826;2022-12-10T12:32:34;20.60;;;6.57;;
52072;SDS011;38074;51.232;6.826;2022-12-10T12:47:21;58.97;;;17.65;;
52072;SDS011;38074;51.232;6.826;2022-12-10T12:54:49;64.13;;;20.25;;
52072;SDS011;38074;51.232;6.826;2022-12-10T13:02:15;55.58;;;19.90;;
52072;SDS011;38074;51.232;6.826;2022-12-10T13:09:52;64.20;;;20.85;;
52072;SDS011;38074;51.232;6.826;2022-12-10T13:24:59;61.45;;;20.63;;
52072;SDS011;38074;51.232;6.826;2022-12-10T13:39:53;58.53;;;19.52;;
52072;SDS011;38074;51.232;6.826;2022-12-10T14:09:56;42.83;;;16.38;;
52072;SDS011;38074;51.232;6.826;2022-12-10T14:17:20;41.65;;;16.00;;
52072;SDS011;38074;51.232;6.826;2022-12-10T14:24:39;36.85;;;14.38;;
52072;SDS011;38074;51.232;6.826;2022-12-10T14:31:55;36.63;;;13.40;;
52072;SDS011;38074;51.232;6.826;2022-12-10T14:39:15;31.52;;;12.77;;
52072;SDS011;38074;51.232;6.826;2022-12-10T14:46:33;31.20;;;12.68;;
52072;SDS011;38074;51.232;6.826;2022-12-10T14:53:49;32.33;;;12.37;;
52072;SDS011;38074;51.232;6.826;2022-12-10T15:01:06;27.67;;;11.55;;
52072;SDS011;38074;51.232;6.826;2022-12-10T15:08:30;26.73;;;10.88;;
52072;SDS011;38074;51.232;6.826;2022-12-10T15:15:47;25.37;;;10.20;;
52072;SDS011;38074;51.232;6.826;2022-12-10T15:30:44;22.25;;;9.00;;
52072;SDS011;38074;51.232;6.826;2022-12-10T15:38:10;23.35;;;9.20;;
52072;SDS011;38074;51.232;6.826;2022-12-10T15:45:37;16.85;;;8.35;;
52072;SDS011;38074;51.232;6.826;2022-12-10T15:52:54;17.08;;;7.50;;
52072;SDS011;38074;51.232;6.826;2022-12-10T16:00:20;15.07;;;7.03;;
52072;SDS011;38074;51.232;6.826;2022-12-10T16:07:40;14.32;;;6.75;;
52072;SDS011;38074;51.232;6.826;2022-12-10T16:14:56;13.32;;;6.07;;
52072;SDS011;38074;51.232;6.826;2022-12-10T16:22:14;16.42;;;6.55;;
52072;SDS011;38074;51.232;6.826;2022-12-10T16:29:30;16.27;;;6.57;;
52072;SDS011;38074;51.232;6.826;2022-12-10T16:36:45;13.10;;;5.87;;
52072;SDS011;38074;51.232;6.826;2022-12-10T16:44:01;14.40;;;6.33;;
52072;SDS011;38074;51.232;6.826;2022-12-10T16:51:23;14.97;;;6.67;;
52072;SDS011;38074;51.232;6.826;2022-12-10T16:58:44;13.47;;;7.57;;
52072;SDS011;38074;51.232;6.826;2022-12-10T17:06:00;21.95;;;8.27;;
52072;SDS011;38074;51.232;6.826;2022-12-10T17:13:18;14.75;;;7.00;;
52072;SDS011;38074;51.232;6.826;2022-12-10T17:20:38;16.77;;;7.30;;
52072;SDS011;38074;51.232;6.826;2022-12-10T17:27:53;19.27;;;7.30;;
52072;SDS011;38074;51.232;6.826;2022-12-10T17:35:09;15.98;;;6.63;;
52072;SDS011;38074;51.232;6.826;2022-12-10T17:42:25;13.85;;;6.38;;
52072;SDS011;38074;51.232;6.826;2022-12-10T17:49:40;12.27;;;5.57;;
52072;SDS011;38074;51.232;6.826;2022-12-10T17:56:56;11.03;;;6.17;;
52072;SDS011;38074;51.232;6.826;2022-12-10T18:04:11;13.40;;;6.03;;
52072;SDS011;38074;51.232;6.826;2022-12-10T18:11:29;12.17;;;5.23;;
52072;SDS011;38074;51.232;6.826;2022-12-10T18:18:47;12.68;;;5.07;;
52072;SDS011;38074;51.232;6.826;2022-12-10T18:26:04;11.00;;;5.47;;
52072;SDS011;38074;51.232;6.826;2022-12-10T18:33:25;10.00;;;4.15;;
52072;SDS011;38074;51.232;6.826;2022-12-10T18:40:40;8.50;;;4.40;;
52072;SDS011;38074;51.232;6.826;2022-12-10T18:47:56;9.02;;;4.93;;
52072;SDS011;38074;51.232;6.826;2022-12-10T18:55:12;6.93;;;4.50;;
52072;SDS011;38074;51.232;6.826;2022-12-10T19:02:27;7.60;;;4.30;;
52072;SDS011;38074;51.232;6.826;2022-12-10T19:09:43;6.80;;;3.97;;
52072;SDS011;38074;51.232;6.826;2022-12-10T19:16:58;6.73;;;3.97;;
52072;SDS011;38074;51.232;6.826;2022-12-10T19:24:15;7.22;;;3.72;;
52072;SDS011;38074;51.232;6.826;2022-12-10T19:31:30;6.30;;;3.57;;
52072;SDS011;38074;51.232;6.826;2022-12-10T19:38:46;7.30;;;4.17;;
52072;SDS011;38074;51.232;6.826;2022-12-10T19:46:09;7.78;;;3.90;;
52072;SDS011;38074;51.232;6.826;2022-12-10T19:53:44;7.25;;;4.05;;
52072;SDS011;38074;51.232;6.826;2022-12-10T20:01:00;7.70;;;3.87;;
52072;SDS011;38074;51.232;6.826;2022-12-10T20:08:20;8.82;;;4.95;;
52072;SDS011;38074;51.232;6.826;2022-12-10T20:15:36;6.83;;;3.93;;
52072;SDS011;38074;51.232;6.826;2022-12-10T20:22:52;6.73;;;4.70;;
52072;SDS011;38074;51.232;6.826;2022-12-10T20:30:09;6.72;;;4.90;;
52072;SDS011;38074;51.232;6.826;2022-12-10T20:37:33;7.00;;;4.60;;
52072;SDS011;38074;51.232;6.826;2022-12-10T20:44:49;6.37;;;4.57;;
52072;SDS011;38074;51.232;6.826;2022-12-10T20:52:04;7.65;;;4.90;;
52072;SDS011;38074;51.232;6.826;2022-12-10T20:59:20;6.27;;;4.50;;
52072;SDS011;38074;51.232;6.826;2022-12-10T21:06:35;8.03;;;4.63;;
52072;SDS011;38074;51.232;6.826;2022-12-10T21:13:51;7.35;;;4.50;;
52072;SDS011;38074;51.232;6.826;2022-12-10T21:21:09;7.97;;;5.32;;
52072;SDS011;38074;51.232;6.826;2022-12-10T21:28:26;6.10;;;4.50;;
52072;SDS011;38074;51.232;6.826;2022-12-10T21:35:42;6.80;;;4.90;;
52072;SDS011;38074;51.232;6.826;2022-12-10T21:42:58;6.63;;;4.72;;
52072;SDS011;38074;51.232;6.826;2022-12-10T21:50:32;7.32;;;5.20;;
52072;SDS011;38074;51.232;6.826;2022-12-10T21:57:48;7.15;;;5.25;;
52072;SDS011;38074;51.232;6.826;2022-12-10T22:05:04;8.53;;;5.93;;
52072;SDS011;38074;51.232;6.826;2022-12-10T22:12:20;9.30;;;5.65;;
52072;SDS011;38074;51.232;6.826;2022-12-10T22:19:36;8.40;;;5.60;;
52072;SDS011;38074;51.232;6.826;2022-12-10T22:26:51;7.47;;;5.47;;
52072;SDS011;38074;51.232;6.826;2022-12-10T22:34:07;8.40;;;5.68;;
52072;SDS011;38074;51.232;6.826;2022-12-10T22:41:22;7.20;;;4.83;;
52072;SDS011;38074;51.232;6.826;2022-12-10T22:48:38;6.93;;;5.00;;
52072;SDS011;38074;51.232;6.826;2022-12-10T22:55:57;10.03;;;6.20;;
52072;SDS011;38074;51.232;6.826;2022-12-10T23:03:14;9.32;;;5.55;;
52072;SDS011;38074;51.232;6.826;2022-12-10T23:10:29;8.23;;;5.40;;
52072;SDS011;38074;51.232;6.826;2022-12-10T23:17:45;6.97;;;4.60;;
52072;SDS011;38074;51.232;6.826;2022-12-10T23:25:00;6.13;;;4.33;;
52072;SDS011;38074;51.232;6.826;2022-12-10T23:32:16;6.57;;;3.97;;
52072;SDS011;38074;51.232;6.826;2022-12-10T23:39:32;6.93;;;4.17;;
52072;SDS011;38074;51.232;6.826;2022-12-10T23:46:47;5.25;;;3.92;;
52072;SDS011;38074;51.232;6.826;2022-12-10T23:54:03;5.47;;;3.77;;
